createdAt,value
2018-02-04T00:00:12.015Z,13.75
2018-02-04T00:01:11.930Z,13.80
2018-02-04T00:03:04.713Z,13.73
2018-02-04T00:04:04.628Z,13.78
2018-02-04T00:05:57.392Z,13.67
2018-02-04T00:06:57.324Z,13.71
2018-02-04T00:08:50.108Z,13.76
2018-02-04T00:09:50.020Z,13.78
2018-02-04T00:11:42.785Z,13.67
2018-02-04T00:12:42.720Z,13.67
2018-02-04T00:14:35.501Z,13.78
2018-02-04T00:15:35.416Z,13.78
2018-02-04T00:17:28.176Z,13.73
2018-02-04T00:18:28.110Z,13.60
2018-02-04T00:20:20.894Z,13.65
2018-02-04T00:21:20.810Z,13.71
2018-02-04T00:23:13.570Z,13.67
2018-02-04T00:24:13.506Z,13.67
2018-02-04T00:26:06.296Z,13.67
2018-02-04T00:27:06.208Z,13.72
2018-02-04T00:28:58.970Z,13.67
2018-02-04T00:29:58.907Z,13.68
2018-02-04T00:31:51.688Z,13.73
2018-02-04T00:32:51.602Z,13.67
2018-02-04T00:34:44.388Z,13.76
2018-02-04T00:35:44.300Z,13.79
2018-02-04T00:37:37.085Z,13.72
2018-02-04T00:38:36.998Z,13.71
2018-02-04T00:40:29.762Z,13.75
2018-02-04T00:41:29.700Z,13.76
2018-02-04T00:43:22.482Z,13.75
2018-02-04T00:44:22.396Z,13.72
2018-02-04T00:46:15.158Z,13.72
2018-02-04T00:47:15.101Z,13.72
2018-02-04T00:49:07.877Z,13.72
2018-02-04T00:50:07.792Z,13.68
2018-02-04T00:52:00.576Z,13.75
2018-02-04T00:53:00.520Z,13.67
2018-02-04T00:54:53.271Z,13.72
2018-02-04T00:55:53.186Z,13.75
2018-02-04T00:57:45.949Z,13.79
2018-02-04T00:58:45.886Z,13.76
2018-02-04T01:00:38.668Z,13.72
2018-02-04T01:01:38.580Z,13.60
2018-02-04T01:03:31.342Z,13.67
2018-02-04T01:04:31.278Z,13.71
2018-02-04T01:06:24.059Z,13.75
2018-02-04T01:07:23.977Z,13.65
2018-02-04T01:09:16.759Z,13.71
2018-02-04T01:10:16.673Z,13.71
2018-02-04T01:12:09.455Z,13.78
2018-02-04T01:13:09.373Z,13.72
2018-02-04T01:15:02.128Z,13.67
2018-02-04T01:16:02.064Z,13.72
2018-02-04T01:17:54.847Z,13.65
2018-02-04T01:18:54.762Z,13.76
2018-02-04T01:20:47.537Z,13.72
2018-02-04T01:21:47.475Z,13.72
2018-02-04T01:23:40.254Z,13.76
2018-02-04T01:24:40.168Z,13.80
2018-02-04T01:26:32.950Z,13.79
2018-02-04T01:27:32.866Z,13.75
2018-02-04T01:29:25.649Z,13.72
2018-02-04T01:30:25.558Z,13.75
2018-02-04T01:32:18.320Z,13.79
2018-02-04T01:33:18.255Z,13.75
2018-02-04T01:35:11.037Z,13.76
2018-02-04T01:36:10.954Z,13.73
2018-02-04T01:38:03.713Z,13.71
2018-02-04T01:39:03.647Z,13.75
2018-02-04T01:40:56.429Z,13.78
2018-02-04T01:41:56.344Z,13.65
2018-02-04T01:43:49.127Z,13.67
2018-02-04T01:44:49.041Z,13.67
2018-02-04T01:46:41.820Z,13.75
2018-02-04T01:47:41.736Z,13.76
2018-02-04T01:49:34.518Z,13.79
2018-02-04T01:50:34.433Z,13.75
2018-02-04T01:52:27.217Z,13.73
2018-02-04T01:53:27.133Z,13.76
2018-02-04T01:55:19.889Z,13.72
2018-02-04T01:56:19.827Z,13.73
2018-02-04T01:58:12.611Z,13.64
2018-02-04T01:59:12.524Z,13.71
2018-02-04T02:01:05.305Z,13.67
2018-02-04T02:02:05.219Z,13.65
2018-02-04T02:03:58.000Z,13.65
2018-02-04T02:04:57.914Z,13.63
2018-02-04T02:06:50.695Z,13.65
2018-02-04T02:07:50.609Z,13.67
2018-02-04T02:09:43.392Z,13.72
2018-02-04T02:10:43.307Z,13.73
2018-02-04T02:12:36.067Z,13.72
2018-02-04T02:13:36.004Z,13.67
2018-02-04T02:15:28.844Z,13.72
2018-02-04T02:16:28.712Z,13.67
2018-02-04T02:18:21.495Z,13.72
2018-02-04T02:19:21.408Z,13.63
2018-02-04T02:21:14.193Z,13.71
2018-02-04T02:22:14.107Z,13.72
2018-02-04T02:24:06.889Z,13.68
2018-02-04T02:25:06.804Z,13.76
2018-02-04T02:26:59.589Z,13.72
2018-02-04T02:27:59.501Z,13.65
2018-02-04T02:29:52.261Z,13.72
2018-02-04T02:30:52.197Z,13.72
2018-02-04T02:32:44.980Z,13.73
2018-02-04T02:33:44.893Z,13.71
2018-02-04T02:35:37.676Z,13.75
2018-02-04T02:36:37.591Z,13.67
2018-02-04T02:38:30.369Z,13.76
2018-02-04T02:39:30.286Z,13.65
2018-02-04T02:41:23.067Z,13.67
2018-02-04T02:42:22.983Z,13.68
2018-02-04T02:44:15.766Z,13.67
2018-02-04T02:45:15.678Z,13.65
2018-02-04T02:47:08.441Z,13.72
2018-02-04T02:48:08.377Z,13.68
2018-02-04T02:50:01.160Z,13.68
2018-02-04T02:51:01.076Z,13.67
2018-02-04T02:52:53.855Z,13.65
2018-02-04T02:53:53.773Z,13.63
2018-02-04T02:55:46.552Z,13.65
2018-02-04T02:56:46.465Z,13.67
2018-02-04T02:58:39.248Z,13.64
2018-02-04T02:59:39.162Z,13.65
2018-02-04T03:01:31.941Z,13.64
2018-02-04T03:02:31.857Z,13.60
2018-02-04T03:04:24.618Z,13.61
2018-02-04T03:05:24.553Z,13.61
2018-02-04T03:07:17.334Z,13.58
2018-02-04T03:08:17.251Z,13.63
2018-02-04T03:10:10.097Z,13.55
2018-02-04T03:11:09.955Z,13.60
2018-02-04T03:13:02.739Z,13.61
2018-02-04T03:14:02.652Z,13.61
2018-02-04T03:15:55.434Z,13.57
2018-02-04T03:16:55.348Z,13.54
2018-02-04T03:18:48.133Z,13.58
2018-02-04T03:19:48.049Z,13.53
2018-02-04T03:21:40.806Z,13.55
2018-02-04T03:22:40.742Z,13.54
2018-02-04T03:24:33.523Z,13.58
2018-02-04T03:25:33.439Z,13.54
2018-02-04T03:27:26.223Z,13.55
2018-02-04T03:28:26.138Z,13.57
2018-02-04T03:30:18.926Z,13.47
2018-02-04T03:31:18.830Z,13.49
2018-02-04T03:33:11.614Z,13.55
2018-02-04T03:34:11.528Z,13.51
2018-02-04T03:36:04.315Z,13.47
2018-02-04T03:37:04.223Z,13.55
2018-02-04T03:38:56.985Z,13.53
2018-02-04T03:39:56.945Z,13.49
2018-02-04T03:41:49.702Z,13.54
2018-02-04T03:42:49.618Z,13.51
2018-02-04T03:44:42.402Z,13.54
2018-02-04T03:45:42.314Z,13.58
2018-02-04T03:47:35.106Z,13.53
2018-02-04T03:48:35.018Z,13.53
2018-02-04T03:50:27.800Z,13.54
2018-02-04T03:51:27.716Z,13.55
2018-02-04T03:53:20.495Z,13.54
2018-02-04T03:54:20.409Z,13.51
2018-02-04T03:56:13.169Z,13.40
2018-02-04T03:57:13.105Z,13.43
2018-02-04T03:59:05.889Z,13.42
2018-02-04T04:00:05.802Z,13.46
2018-02-04T04:01:58.584Z,13.49
2018-02-04T04:02:58.499Z,13.54
2018-02-04T04:04:51.279Z,13.40
2018-02-04T04:05:51.195Z,13.38
2018-02-04T04:07:43.978Z,13.40
2018-02-04T04:08:43.890Z,13.54
2018-02-04T04:10:36.673Z,13.40
2018-02-04T04:11:36.586Z,13.40
2018-02-04T04:13:29.347Z,13.42
2018-02-04T04:14:29.284Z,13.54
2018-02-04T04:16:22.064Z,13.43
2018-02-04T04:17:21.981Z,13.46
2018-02-04T04:19:14.740Z,13.39
2018-02-04T04:20:14.675Z,13.42
2018-02-04T04:22:07.457Z,13.39
2018-02-04T04:23:07.372Z,13.40
2018-02-04T04:25:00.153Z,13.42
2018-02-04T04:26:00.070Z,13.38
2018-02-04T04:27:52.850Z,13.43
2018-02-04T04:28:52.766Z,13.46
2018-02-04T04:30:45.527Z,13.43
2018-02-04T04:31:45.463Z,13.40
2018-02-04T04:33:38.248Z,13.47
2018-02-04T04:34:38.165Z,13.43
2018-02-04T04:36:30.945Z,13.39
2018-02-04T04:37:30.862Z,13.39
2018-02-04T04:39:23.644Z,13.39
2018-02-04T04:40:23.558Z,13.40
2018-02-04T04:42:16.338Z,13.39
2018-02-04T04:43:16.253Z,13.39
2018-02-04T04:45:09.037Z,13.35
2018-02-04T04:46:08.952Z,13.36
2018-02-04T04:48:01.711Z,13.47
2018-02-04T04:49:01.647Z,13.40
2018-02-04T04:50:54.427Z,13.39
2018-02-04T04:51:54.342Z,13.45
2018-02-04T04:53:47.124Z,13.38
2018-02-04T04:54:47.037Z,13.40
2018-02-04T04:56:39.820Z,13.39
2018-02-04T04:57:39.734Z,13.38
2018-02-04T04:59:32.515Z,13.35
2018-02-04T05:00:32.430Z,13.42
2018-02-04T05:02:25.213Z,13.38
2018-02-04T05:03:25.128Z,13.27
2018-02-04T05:05:17.891Z,13.26
2018-02-04T05:06:17.824Z,13.39
2018-02-04T05:08:10.610Z,13.36
2018-02-04T05:09:10.526Z,13.40
2018-02-04T05:11:03.312Z,13.38
2018-02-04T05:12:03.228Z,13.35
2018-02-04T05:13:56.005Z,13.40
2018-02-04T05:14:55.919Z,13.30
2018-02-04T05:16:48.700Z,13.24
2018-02-04T05:17:48.614Z,13.26
2018-02-04T05:19:41.396Z,13.32
2018-02-04T05:20:41.312Z,13.32
2018-02-04T05:22:34.073Z,13.24
2018-02-04T05:23:34.007Z,13.20
2018-02-04T05:25:26.795Z,13.23
2018-02-04T05:26:26.708Z,13.24
2018-02-04T05:28:19.489Z,13.38
2018-02-04T05:29:19.402Z,13.38
2018-02-04T05:31:12.183Z,13.38
2018-02-04T05:32:12.099Z,13.27
2018-02-04T05:34:04.884Z,13.24
2018-02-04T05:35:04.795Z,13.39
2018-02-04T05:36:57.579Z,13.23
2018-02-04T05:37:57.492Z,13.21
2018-02-04T05:39:50.256Z,13.21
2018-02-04T05:40:50.191Z,13.30
2018-02-04T05:42:42.972Z,13.29
2018-02-04T05:43:42.891Z,13.23
2018-02-04T05:45:35.670Z,13.26
2018-02-04T05:46:35.587Z,13.27
2018-02-04T05:48:28.366Z,13.23
2018-02-04T05:49:28.280Z,13.29
2018-02-04T05:51:21.061Z,13.26
2018-02-04T05:52:20.976Z,13.21
2018-02-04T05:54:13.758Z,13.23
2018-02-04T05:55:13.673Z,13.26
2018-02-04T05:57:06.454Z,13.21
2018-02-04T05:58:06.368Z,13.32
2018-02-04T05:59:59.149Z,13.24
2018-02-04T06:00:59.063Z,13.32
2018-02-04T06:02:51.824Z,13.32
2018-02-04T06:03:51.760Z,13.29
2018-02-04T06:05:44.544Z,13.24
2018-02-04T06:06:44.459Z,13.27
2018-02-04T06:08:37.241Z,13.26
2018-02-04T06:09:37.155Z,13.30
2018-02-04T06:11:29.939Z,13.27
2018-02-04T06:12:29.852Z,13.26
2018-02-04T06:14:22.635Z,13.29
2018-02-04T06:15:22.551Z,13.26
2018-02-04T06:17:15.333Z,13.17
2018-02-04T06:18:15.248Z,13.24
2018-02-04T06:20:08.011Z,13.21
2018-02-04T06:21:07.942Z,13.19
2018-02-04T06:23:00.724Z,13.20
2018-02-04T06:24:00.639Z,13.21
2018-02-04T06:25:53.429Z,13.13
2018-02-04T06:26:53.334Z,13.11
2018-02-04T06:28:46.119Z,13.16
2018-02-04T06:29:46.033Z,13.16
2018-02-04T06:31:38.815Z,13.19
2018-02-04T06:32:38.728Z,13.17
2018-02-04T06:34:31.512Z,13.16
2018-02-04T06:35:31.427Z,13.13
2018-02-04T06:37:24.187Z,13.14
2018-02-04T06:38:24.122Z,13.05
2018-02-04T06:40:16.904Z,13.17
2018-02-04T06:41:16.817Z,13.13
2018-02-04T06:43:09.598Z,13.11
2018-02-04T06:44:09.511Z,13.09
2018-02-04T06:46:02.297Z,13.06
2018-02-04T06:47:02.210Z,13.14
2018-02-04T06:48:54.991Z,13.13
2018-02-04T06:49:54.905Z,13.14
2018-02-04T06:51:48.287Z,13.14
2018-02-04T06:52:48.003Z,13.24
2018-02-04T06:54:40.558Z,13.23
2018-02-04T06:55:40.493Z,13.21
2018-02-04T06:57:33.273Z,13.13
2018-02-04T06:58:33.187Z,13.17
2018-02-04T07:00:25.949Z,13.21
2018-02-04T07:01:25.885Z,13.14
2018-02-04T07:03:18.665Z,13.17
2018-02-04T07:04:18.579Z,13.24
2018-02-04T07:06:11.361Z,13.17
2018-02-04T07:07:11.276Z,13.23
2018-02-04T07:09:04.062Z,13.19
2018-02-04T07:10:03.976Z,13.17
2018-02-04T07:11:56.735Z,13.13
2018-02-04T07:12:56.670Z,13.20
2018-02-04T07:14:49.454Z,13.30
2018-02-04T07:15:49.368Z,13.19
2018-02-04T07:17:42.131Z,13.24
2018-02-04T07:18:42.066Z,13.36
2018-02-04T07:20:34.849Z,13.26
2018-02-04T07:21:34.796Z,13.29
2018-02-04T07:23:27.584Z,13.24
2018-02-04T07:24:27.454Z,13.24
2018-02-04T07:26:20.239Z,13.29
2018-02-04T07:27:20.154Z,13.21
2018-02-04T07:29:12.916Z,13.26
2018-02-04T07:30:12.850Z,13.30
2018-02-04T07:32:05.632Z,13.26
2018-02-04T07:33:05.547Z,13.29
2018-02-04T07:34:58.305Z,13.32
2018-02-04T07:35:58.240Z,13.43
2018-02-04T07:37:51.024Z,13.40
2018-02-04T07:38:50.938Z,13.42
2018-02-04T07:40:43.743Z,13.51
2018-02-04T07:41:43.634Z,13.55
2018-02-04T07:43:36.417Z,13.53
2018-02-04T07:44:36.331Z,13.54
2018-02-04T07:46:29.112Z,13.63
2018-02-04T07:47:29.028Z,13.71
2018-02-04T07:49:21.792Z,13.75
2018-02-04T07:50:21.726Z,13.71
2018-02-04T07:52:14.508Z,13.73
2018-02-04T07:53:14.419Z,13.78
2018-02-04T07:55:07.208Z,13.73
2018-02-04T07:56:07.116Z,13.72
2018-02-04T07:57:59.901Z,13.75
2018-02-04T07:58:59.816Z,13.80
2018-02-04T08:00:52.595Z,13.82
2018-02-04T08:01:52.513Z,13.91
2018-02-04T08:03:45.291Z,13.93
2018-02-04T08:04:45.206Z,13.91
2018-02-04T08:06:37.966Z,14.00
2018-02-04T08:07:37.903Z,13.94
2018-02-04T08:09:30.686Z,14.03
2018-02-04T08:10:30.601Z,14.03
2018-02-04T08:12:23.381Z,14.08
2018-02-04T08:13:23.297Z,14.05
2018-02-04T08:15:16.081Z,14.04
2018-02-04T08:16:15.995Z,14.03
2018-02-04T08:18:08.776Z,14.08
2018-02-04T08:19:08.694Z,14.03
2018-02-04T08:21:01.477Z,14.12
2018-02-04T08:22:01.390Z,14.03
2018-02-04T08:23:54.152Z,14.12
2018-02-04T08:24:54.090Z,14.16
2018-02-04T08:26:46.868Z,14.22
2018-02-04T08:27:46.783Z,14.23
2018-02-04T08:28:46.722Z,14.26
2018-02-04T08:29:46.712Z,14.27
2018-02-04T08:30:46.602Z,14.31
2018-02-04T08:31:46.541Z,14.36
2018-02-04T08:32:46.480Z,14.40
2018-02-04T08:33:46.421Z,14.49
2018-02-04T08:34:46.360Z,14.48
2018-02-04T08:35:46.299Z,14.48
2018-02-04T08:36:46.238Z,14.55
2018-02-04T08:37:46.179Z,14.59
2018-02-04T08:38:46.118Z,14.53
2018-02-04T08:39:46.056Z,14.63
2018-02-04T08:40:45.996Z,14.69
2018-02-04T08:41:45.938Z,14.70
2018-02-04T08:42:45.875Z,14.74
2018-02-04T08:43:45.815Z,14.71
2018-02-04T08:44:45.755Z,14.71
2018-02-04T08:45:45.695Z,14.71
2018-02-04T08:46:45.633Z,14.83
2018-02-04T08:47:45.576Z,14.85
2018-02-04T08:48:45.516Z,14.87
2018-02-04T08:49:45.453Z,14.92
2018-02-04T08:50:45.395Z,14.93
2018-02-04T08:51:45.338Z,15.05
2018-02-04T08:52:45.277Z,15.07
2018-02-04T08:53:45.217Z,15.14
2018-02-04T08:54:45.152Z,15.19
2018-02-04T08:55:45.092Z,15.20
2018-02-04T08:56:45.033Z,15.11
2018-02-04T08:57:44.972Z,15.15
2018-02-04T08:58:44.912Z,15.19
2018-02-04T08:59:44.851Z,15.19
2018-02-04T09:00:44.792Z,15.07
2018-02-04T09:01:44.731Z,15.14
2018-02-04T09:02:44.670Z,15.08
2018-02-04T09:03:44.610Z,15.11
2018-02-04T09:04:44.551Z,14.97
2018-02-04T09:05:44.492Z,14.92
2018-02-04T09:06:44.432Z,14.90
2018-02-04T09:07:44.372Z,14.90
2018-02-04T09:08:44.312Z,14.79
2018-02-04T09:09:44.251Z,14.73
2018-02-04T09:10:44.191Z,14.74
2018-02-04T09:11:44.130Z,14.64
2018-02-04T09:12:44.070Z,14.56
2018-02-04T09:13:44.011Z,14.58
2018-02-04T09:14:43.949Z,14.61
2018-02-04T09:15:43.890Z,14.58
2018-02-04T09:16:43.832Z,14.58
2018-02-04T09:17:43.771Z,14.58
2018-02-04T09:18:43.708Z,14.56
2018-02-04T09:19:43.649Z,14.58
2018-02-04T09:20:43.591Z,14.55
2018-02-04T09:21:43.528Z,14.59
2018-02-04T09:22:43.468Z,14.61
2018-02-04T09:23:43.407Z,14.55
2018-02-04T09:24:43.348Z,14.53
2018-02-04T09:25:43.287Z,14.55
2018-02-04T09:26:43.227Z,14.53
2018-02-04T09:27:43.166Z,14.52
2018-02-04T09:28:43.108Z,14.69
2018-02-04T09:29:43.045Z,14.64
2018-02-04T09:30:42.984Z,14.61
2018-02-04T09:31:42.925Z,14.73
2018-02-04T09:32:42.864Z,14.83
2018-02-04T09:33:42.804Z,14.74
2018-02-04T09:34:42.744Z,14.87
2018-02-04T09:35:42.685Z,14.90
2018-02-04T09:36:42.622Z,14.92
2018-02-04T09:37:42.562Z,14.90
2018-02-04T09:38:42.500Z,14.95
2018-02-04T09:39:42.441Z,14.89
2018-02-04T09:40:42.384Z,14.78
2018-02-04T09:41:42.322Z,14.78
2018-02-04T09:42:42.262Z,14.83
2018-02-04T09:43:42.200Z,14.85
2018-02-04T09:44:42.141Z,14.85
2018-02-04T09:45:42.081Z,14.71
2018-02-04T09:46:42.021Z,14.82
2018-02-04T09:47:41.961Z,14.83
2018-02-04T09:48:41.900Z,14.74
2018-02-04T09:49:41.841Z,14.82
2018-02-04T09:50:41.783Z,14.79
2018-02-04T09:51:41.718Z,14.73
2018-02-04T09:52:41.657Z,14.78
2018-02-04T09:53:41.599Z,14.79
2018-02-04T09:54:41.538Z,14.82
2018-02-04T09:55:41.478Z,14.79
2018-02-04T09:56:41.424Z,14.78
2018-02-04T09:57:41.357Z,14.87
2018-02-04T09:58:41.321Z,14.86
2018-02-04T09:59:41.238Z,14.92
2018-02-04T10:00:41.177Z,14.89
2018-02-04T10:01:41.118Z,14.96
2018-02-04T10:02:41.057Z,15.01
2018-02-04T10:03:40.995Z,14.97
2018-02-04T10:04:40.937Z,14.93
2018-02-04T10:05:40.876Z,14.89
2018-02-04T10:06:40.817Z,14.86
2018-02-04T10:07:40.755Z,14.86
2018-02-04T10:08:40.695Z,14.92
2018-02-04T10:09:40.636Z,14.92
2018-02-04T10:10:40.575Z,14.92
2018-02-04T10:11:40.516Z,14.86
2018-02-04T10:12:40.455Z,14.90
2018-02-04T10:13:40.394Z,15.03
2018-02-04T10:14:40.334Z,15.05
2018-02-04T10:15:40.274Z,14.90
2018-02-04T10:16:40.217Z,14.96
2018-02-04T10:17:40.157Z,14.95
2018-02-04T10:18:40.093Z,14.89
2018-02-04T10:19:40.038Z,14.97
2018-02-04T10:20:39.975Z,14.87
2018-02-04T10:21:39.915Z,14.95
2018-02-04T10:22:39.853Z,14.90
2018-02-04T10:23:39.793Z,14.87
2018-02-04T10:24:39.733Z,14.85
2018-02-04T10:25:39.674Z,14.87
2018-02-04T10:26:39.615Z,14.77
2018-02-04T10:27:39.553Z,14.79
2018-02-04T10:28:39.495Z,14.87
2018-02-04T10:29:39.434Z,14.79
2018-02-04T10:30:39.426Z,14.90
2018-02-04T10:31:39.314Z,14.86
2018-02-04T10:32:39.254Z,14.89
2018-02-04T10:33:39.194Z,14.90
2018-02-04T10:34:39.133Z,14.86
2018-02-04T10:35:39.074Z,14.92
2018-02-04T10:36:39.014Z,14.97
2018-02-04T10:37:38.955Z,14.93
2018-02-04T10:38:38.892Z,15.03
2018-02-04T10:39:38.833Z,15.01
2018-02-04T10:40:38.773Z,15.04
2018-02-04T10:41:38.713Z,14.99
2018-02-04T10:42:38.652Z,15.05
2018-02-04T10:43:38.594Z,15.05
2018-02-04T10:44:38.532Z,15.04
2018-02-04T10:45:38.473Z,15.07
2018-02-04T10:46:38.412Z,15.01
2018-02-04T10:47:38.354Z,15.11
2018-02-04T10:48:38.293Z,15.10
2018-02-04T10:49:38.237Z,15.14
2018-02-04T10:50:38.173Z,15.15
2018-02-04T10:51:38.112Z,15.19
2018-02-04T10:52:38.054Z,15.23
2018-02-04T10:53:37.993Z,15.32
2018-02-04T10:54:37.933Z,15.22
2018-02-04T10:55:37.892Z,15.22
2018-02-04T10:56:37.812Z,15.30
2018-02-04T10:57:37.754Z,15.33
2018-02-04T10:58:37.694Z,15.30
2018-02-04T10:59:37.633Z,15.41
2018-02-04T11:00:37.575Z,15.38
2018-02-04T11:01:37.513Z,15.43
2018-02-04T11:02:37.454Z,15.41
2018-02-04T11:03:37.393Z,15.43
2018-02-04T11:04:37.336Z,15.45
2018-02-04T11:05:37.273Z,15.40
2018-02-04T11:06:37.215Z,15.47
2018-02-04T11:07:37.154Z,15.50
2018-02-04T11:08:37.095Z,15.44
2018-02-04T11:09:37.035Z,15.54
2018-02-04T11:10:36.976Z,15.52
2018-02-04T11:11:36.933Z,15.56
2018-02-04T11:12:36.856Z,15.47
2018-02-04T11:13:36.798Z,15.52
2018-02-04T11:14:36.737Z,15.51
2018-02-04T11:15:36.678Z,15.52
2018-02-04T11:16:36.620Z,15.51
2018-02-04T11:17:36.562Z,15.51
2018-02-04T11:18:36.499Z,15.56
2018-02-04T11:19:36.443Z,15.43
2018-02-04T11:20:36.380Z,15.50
2018-02-04T11:21:36.321Z,15.45
2018-02-04T11:22:36.260Z,15.51
2018-02-04T11:23:36.199Z,15.44
2018-02-04T11:24:36.141Z,15.48
2018-02-04T11:25:36.084Z,15.54
2018-02-04T11:26:36.022Z,15.59
2018-02-04T11:27:35.962Z,15.51
2018-02-04T11:28:35.903Z,15.51
2018-02-04T11:29:35.844Z,15.41
2018-02-04T11:30:35.783Z,15.41
2018-02-04T11:31:35.723Z,15.52
2018-02-04T11:32:35.665Z,15.56
2018-02-04T11:33:35.604Z,15.58
2018-02-04T11:34:35.545Z,15.58
2018-02-04T11:35:35.485Z,15.69
2018-02-04T11:36:35.426Z,15.72
2018-02-04T11:37:35.367Z,15.77
2018-02-04T11:38:35.307Z,15.78
2018-02-04T11:39:35.246Z,15.81
2018-02-04T11:40:35.188Z,15.81
2018-02-04T11:41:35.129Z,15.88
2018-02-04T11:42:35.067Z,15.87
2018-02-04T11:43:35.009Z,15.85
2018-02-04T11:44:34.949Z,15.98
2018-02-04T11:45:34.891Z,15.98
2018-02-04T11:46:34.860Z,15.98
2018-02-04T11:47:34.773Z,15.98
2018-02-04T11:48:34.712Z,15.87
2018-02-04T11:49:34.652Z,15.95
2018-02-04T11:50:34.593Z,16.03
2018-02-04T11:51:34.533Z,16.03
2018-02-04T11:52:34.475Z,16.00
2018-02-04T11:53:34.417Z,16.06
2018-02-04T11:54:34.355Z,16.10
2018-02-04T11:55:34.298Z,16.14
2018-02-04T11:56:34.238Z,16.24
2018-02-04T11:57:34.180Z,16.25
2018-02-04T11:58:34.119Z,16.29
2018-02-04T11:59:34.061Z,16.26
2018-02-04T12:00:34.002Z,16.37
2018-02-04T12:01:33.942Z,16.37
2018-02-04T12:02:33.883Z,16.24
2018-02-04T12:03:33.823Z,16.26
2018-02-04T12:04:33.765Z,16.28
2018-02-04T12:05:33.704Z,16.24
2018-02-04T12:06:33.646Z,16.13
2018-02-04T12:07:33.586Z,16.02
2018-02-04T12:08:33.529Z,16.03
2018-02-04T12:09:33.468Z,16.00
2018-02-04T12:10:33.409Z,16.00
2018-02-04T12:11:33.352Z,15.93
2018-02-04T12:12:33.290Z,15.83
2018-02-04T12:13:33.231Z,15.96
2018-02-04T12:14:33.174Z,15.90
2018-02-04T12:15:33.115Z,15.88
2018-02-04T12:16:33.080Z,15.80
2018-02-04T12:17:32.996Z,15.78
2018-02-04T12:18:32.935Z,15.77
2018-02-04T12:19:32.876Z,15.69
2018-02-04T12:20:32.821Z,15.76
2018-02-04T12:21:32.759Z,15.66
2018-02-04T12:22:32.697Z,15.60
2018-02-04T12:23:32.642Z,15.60
2018-02-04T12:24:32.580Z,15.58
2018-02-04T12:25:32.519Z,15.56
2018-02-04T12:26:32.464Z,15.51
2018-02-04T12:27:32.402Z,15.52
2018-02-04T12:28:32.342Z,15.43
2018-02-04T12:29:32.284Z,15.51
2018-02-04T12:30:32.223Z,15.45
2018-02-04T12:31:32.168Z,15.44
2018-02-04T12:32:32.108Z,15.40
2018-02-04T12:33:32.044Z,15.47
2018-02-04T12:34:31.986Z,15.44
2018-02-04T12:35:31.925Z,15.41
2018-02-04T12:36:31.867Z,15.40
2018-02-04T12:37:31.807Z,15.40
2018-02-04T12:38:31.746Z,15.36
2018-02-04T12:39:31.686Z,15.35
2018-02-04T12:40:31.633Z,15.27
2018-02-04T12:41:31.568Z,15.35
2018-02-04T12:42:31.507Z,15.23
2018-02-04T12:43:31.448Z,15.22
2018-02-04T12:44:31.388Z,15.26
2018-02-04T12:45:31.329Z,15.23
2018-02-04T12:46:31.268Z,15.27
2018-02-04T12:47:31.210Z,15.20
2018-02-04T12:48:31.148Z,15.22
2018-02-04T12:49:31.089Z,15.10
2018-02-04T12:50:31.029Z,15.12
2018-02-04T12:51:30.970Z,15.19
2018-02-04T12:52:30.909Z,15.22
2018-02-04T12:53:30.849Z,15.25
2018-02-04T12:54:30.789Z,15.26
2018-02-04T12:55:30.731Z,15.25
2018-02-04T12:56:30.670Z,15.30
2018-02-04T12:57:30.610Z,15.22
2018-02-04T12:58:30.550Z,15.25
2018-02-04T12:59:30.490Z,15.10
2018-02-04T13:00:30.430Z,15.19
2018-02-04T13:01:30.372Z,15.17
2018-02-04T13:02:30.346Z,15.22
2018-02-04T13:03:30.250Z,15.17
2018-02-04T13:04:30.191Z,15.29
2018-02-04T13:05:30.131Z,15.17
2018-02-04T13:06:30.071Z,15.22
2018-02-04T13:07:30.010Z,15.15
2018-02-04T13:08:29.956Z,15.19
2018-02-04T13:09:29.891Z,15.22
2018-02-04T13:10:29.830Z,15.17
2018-02-04T13:11:29.771Z,15.11
2018-02-04T13:12:29.711Z,15.20
2018-02-04T13:13:29.652Z,15.08
2018-02-04T13:14:29.591Z,15.11
2018-02-04T13:15:29.533Z,15.15
2018-02-04T13:16:29.471Z,15.14
2018-02-04T13:17:29.411Z,15.10
2018-02-04T13:18:29.351Z,15.12
2018-02-04T13:19:29.292Z,15.19
2018-02-04T13:20:29.231Z,15.20
2018-02-04T13:21:29.173Z,15.12
2018-02-04T13:22:29.110Z,15.14
2018-02-04T13:23:29.052Z,15.14
2018-02-04T13:24:28.993Z,15.19
2018-02-04T13:25:28.933Z,15.14
2018-02-04T13:26:28.873Z,15.15
2018-02-04T13:27:28.812Z,15.12
2018-02-04T13:28:28.752Z,15.14
2018-02-04T13:29:28.692Z,15.20
2018-02-04T13:30:28.631Z,15.23
2018-02-04T13:31:28.573Z,15.20
2018-02-04T13:32:28.512Z,15.10
2018-02-04T13:33:28.451Z,15.17
2018-02-04T13:34:28.392Z,15.14
2018-02-04T13:35:28.331Z,15.14
2018-02-04T13:36:28.283Z,15.15
2018-02-04T13:37:28.212Z,15.19
2018-02-04T13:38:28.151Z,15.12
2018-02-04T13:39:28.092Z,15.20
2018-02-04T13:40:28.032Z,15.10
2018-02-04T13:41:27.973Z,15.08
2018-02-04T13:42:27.911Z,15.05
2018-02-04T13:43:27.851Z,15.10
2018-02-04T13:44:27.792Z,15.01
2018-02-04T13:45:27.733Z,15.07
2018-02-04T13:46:27.672Z,15.05
2018-02-04T13:47:27.611Z,15.03
2018-02-04T13:48:27.553Z,14.96
2018-02-04T13:49:27.491Z,14.99
2018-02-04T13:50:27.433Z,14.89
2018-02-04T13:51:27.372Z,14.95
2018-02-04T13:52:27.357Z,14.92
2018-02-04T13:53:27.252Z,14.93
2018-02-04T13:54:27.191Z,14.87
2018-02-04T13:55:27.131Z,14.79
2018-02-04T13:56:27.071Z,14.82
2018-02-04T13:57:27.015Z,14.79
2018-02-04T13:58:26.952Z,14.82
2018-02-04T13:59:26.890Z,14.82
2018-02-04T14:00:26.831Z,14.83
2018-02-04T14:01:26.773Z,14.69
2018-02-04T14:02:26.709Z,14.70
2018-02-04T14:03:26.649Z,14.71
2018-02-04T14:04:26.590Z,14.70
2018-02-04T14:05:26.533Z,14.61
2018-02-04T14:06:26.470Z,14.58
2018-02-04T14:07:26.409Z,14.61
2018-02-04T14:08:26.350Z,14.55
2018-02-04T14:09:26.289Z,14.66
2018-02-04T14:10:26.236Z,14.67
2018-02-04T14:11:26.168Z,14.58
2018-02-04T14:12:26.108Z,14.63
2018-02-04T14:13:26.047Z,14.61
2018-02-04T14:14:25.986Z,14.66
2018-02-04T14:15:25.926Z,14.69
2018-02-04T14:16:25.868Z,14.56
2018-02-04T14:17:25.807Z,14.51
2018-02-04T14:18:25.744Z,14.58
2018-02-04T14:19:25.684Z,14.55
2018-02-04T14:20:25.626Z,14.55
2018-02-04T14:21:25.566Z,14.56
2018-02-04T14:22:25.506Z,14.58
2018-02-04T14:23:25.443Z,14.53
2018-02-04T14:24:25.383Z,14.61
2018-02-04T14:25:25.323Z,14.56
2018-02-04T14:26:25.263Z,14.56
2018-02-04T14:27:25.202Z,14.61
2018-02-04T14:28:25.142Z,14.56
2018-02-04T14:29:25.083Z,14.61
2018-02-04T14:30:25.023Z,14.56
2018-02-04T14:31:24.962Z,14.53
2018-02-04T14:32:24.901Z,14.49
2018-02-04T14:33:24.841Z,14.44
2018-02-04T14:34:24.780Z,14.48
2018-02-04T14:35:24.721Z,14.48
2018-02-04T14:36:24.659Z,14.56
2018-02-04T14:37:24.599Z,14.56
2018-02-04T14:38:24.538Z,14.48
2018-02-04T14:39:24.479Z,14.56
2018-02-04T14:40:24.417Z,14.45
2018-02-04T14:41:24.357Z,14.45
2018-02-04T14:42:24.297Z,14.51
2018-02-04T14:43:24.236Z,14.44
2018-02-04T14:44:24.175Z,14.53
2018-02-04T14:45:24.118Z,14.46
2018-02-04T14:46:24.055Z,14.51
2018-02-04T14:47:23.993Z,14.46
2018-02-04T14:48:23.939Z,14.45
2018-02-04T14:49:23.873Z,14.48
2018-02-04T14:50:23.814Z,14.51
2018-02-04T14:51:23.751Z,14.52
2018-02-04T14:52:23.695Z,14.48
2018-02-04T14:53:23.632Z,14.52
2018-02-04T14:54:23.570Z,14.46
2018-02-04T14:55:23.510Z,14.52
2018-02-04T14:56:23.450Z,14.51
2018-02-04T14:57:23.391Z,14.51
2018-02-04T14:58:23.329Z,14.48
2018-02-04T14:59:23.268Z,14.45
2018-02-04T15:00:23.207Z,14.44
2018-02-04T15:01:23.149Z,14.37
2018-02-04T15:02:23.087Z,14.49
2018-02-04T15:03:23.026Z,14.37
2018-02-04T15:04:22.966Z,14.38
2018-02-04T15:05:22.905Z,14.40
2018-02-04T15:06:22.844Z,14.37
2018-02-04T15:07:22.785Z,14.37
2018-02-04T15:08:22.724Z,14.38
2018-02-04T15:09:22.664Z,14.38
2018-02-04T15:10:22.602Z,14.38
2018-02-04T15:11:22.543Z,14.41
2018-02-04T15:12:22.483Z,14.40
2018-02-04T15:13:22.421Z,14.34
2018-02-04T15:14:22.359Z,14.34
2018-02-04T15:15:22.299Z,14.33
2018-02-04T15:16:22.241Z,14.40
2018-02-04T15:17:22.179Z,14.30
2018-02-04T15:18:22.118Z,14.37
2018-02-04T15:19:22.058Z,14.38
2018-02-04T15:20:21.998Z,14.36
2018-02-04T15:21:21.937Z,14.37
2018-02-04T15:22:21.876Z,14.36
2018-02-04T15:23:21.815Z,14.28
2018-02-04T15:24:21.754Z,14.30
2018-02-04T15:25:21.694Z,14.31
2018-02-04T15:26:21.634Z,14.27